sensor_id;sensor_type;location;lat;lon;timestamp;P1;durP1;ratioP1;P2;durP2;ratioP2
17987;SDS011;9119;50.932;5.342;2023-06-22T00:01:55;18.50;;;5.67;;
17987;SDS011;9119;50.932;5.342;2023-06-22T00:04:20;25.23;;;5.50;;
17987;SDS011;9119;50.932;5.342;2023-06-22T00:06:46;19.33;;;5.70;;
17987;SDS011;9119;50.932;5.342;2023-06-22T00:09:12;21.73;;;6.63;;
17987;SDS011;9119;50.932;5.342;2023-06-22T00:11:37;16.77;;;6.03;;
17987;SDS011;9119;50.932;5.342;2023-06-22T00:14:04;23.77;;;6.03;;
17987;SDS011;9119;50.932;5.342;2023-06-22T00:16:31;16.57;;;5.57;;
17987;SDS011;9119;50.932;5.342;2023-06-22T00:18:57;21.93;;;7.00;;
17987;SDS011;9119;50.932;5.342;2023-06-22T00:21:25;17.50;;;5.13;;
17987;SDS011;9119;50.932;5.342;2023-06-22T00:23:51;21.20;;;6.10;;
17987;SDS011;9119;50.932;5.342;2023-06-22T00:26:17;17.43;;;5.60;;
17987;SDS011;9119;50.932;5.342;2023-06-22T00:28:43;20.17;;;5.50;;
17987;SDS011;9119;50.932;5.342;2023-06-22T00:31:09;18.70;;;5.73;;
17987;SDS011;9119;50.932;5.342;2023-06-22T00:33:35;19.17;;;5.30;;
17987;SDS011;9119;50.932;5.342;2023-06-22T00:36:01;18.63;;;5.73;;
17987;SDS011;9119;50.932;5.342;2023-06-22T00:38:28;22.60;;;6.07;;
17987;SDS011;9119;50.932;5.342;2023-06-22T00:40:53;20.43;;;5.87;;
17987;SDS011;9119;50.932;5.342;2023-06-22T00:43:19;27.80;;;6.80;;
17987;SDS011;9119;50.932;5.342;2023-06-22T00:45:45;29.63;;;7.17;;
17987;SDS011;9119;50.932;5.342;2023-06-22T00:48:11;30.57;;;7.43;;
17987;SDS011;9119;50.932;5.342;2023-06-22T00:50:38;50.43;;;11.00;;
17987;SDS011;9119;50.932;5.342;2023-06-22T00:53:06;57.77;;;10.97;;
17987;SDS011;9119;50.932;5.342;2023-06-22T00:55:33;53.43;;;12.33;;
17987;SDS011;9119;50.932;5.342;2023-06-22T00:58:04;60.70;;;13.30;;
17987;SDS011;9119;50.932;5.342;2023-06-22T01:00:35;56.93;;;12.33;;
17987;SDS011;9119;50.932;5.342;2023-06-22T01:03:02;57.83;;;12.77;;
17987;SDS011;9119;50.932;5.342;2023-06-22T01:05:29;55.80;;;11.70;;
17987;SDS011;9119;50.932;5.342;2023-06-22T01:08:15;61.83;;;13.90;;
17987;SDS011;9119;50.932;5.342;2023-06-22T01:10:49;60.77;;;13.47;;
17987;SDS011;9119;50.932;5.342;2023-06-22T01:13:41;59.07;;;13.03;;
17987;SDS011;9119;50.932;5.342;2023-06-22T01:18:45;67.37;;;14.60;;
17987;SDS011;9119;50.932;5.342;2023-06-22T01:21:16;66.10;;;13.67;;
17987;SDS011;9119;50.932;5.342;2023-06-22T01:23:50;60.77;;;14.43;;
17987;SDS011;9119;50.932;5.342;2023-06-22T01:26:37;62.60;;;13.77;;
17987;SDS011;9119;50.932;5.342;2023-06-22T01:29:27;64.67;;;13.47;;
17987;SDS011;9119;50.932;5.342;2023-06-22T01:31:55;58.13;;;12.47;;
17987;SDS011;9119;50.932;5.342;2023-06-22T01:34:23;66.00;;;13.23;;
17987;SDS011;9119;50.932;5.342;2023-06-22T01:36:49;59.83;;;12.50;;
17987;SDS011;9119;50.932;5.342;2023-06-22T01:39:16;61.37;;;13.13;;
17987;SDS011;9119;50.932;5.342;2023-06-22T01:41:43;57.43;;;13.40;;
17987;SDS011;9119;50.932;5.342;2023-06-22T01:44:09;51.47;;;12.33;;
17987;SDS011;9119;50.932;5.342;2023-06-22T01:46:37;48.97;;;10.73;;
17987;SDS011;9119;50.932;5.342;2023-06-22T01:49:04;47.70;;;11.60;;
17987;SDS011;9119;50.932;5.342;2023-06-22T01:51:31;49.57;;;12.17;;
17987;SDS011;9119;50.932;5.342;2023-06-22T01:53:57;52.03;;;11.13;;
17987;SDS011;9119;50.932;5.342;2023-06-22T01:56:23;52.70;;;11.80;;
17987;SDS011;9119;50.932;5.342;2023-06-22T01:59:04;44.23;;;11.63;;
17987;SDS011;9119;50.932;5.342;2023-06-22T02:02:06;58.17;;;11.83;;
17987;SDS011;9119;50.932;5.342;2023-06-22T02:04:47;45.37;;;11.17;;
17987;SDS011;9119;50.932;5.342;2023-06-22T02:07:20;47.43;;;11.90;;
17987;SDS011;9119;50.932;5.342;2023-06-22T02:09:50;54.57;;;12.10;;
17987;SDS011;9119;50.932;5.342;2023-06-22T02:12:18;42.03;;;11.10;;
17987;SDS011;9119;50.932;5.342;2023-06-22T02:14:47;36.90;;;11.00;;
17987;SDS011;9119;50.932;5.342;2023-06-22T02:17:13;41.87;;;10.47;;
17987;SDS011;9119;50.932;5.342;2023-06-22T02:19:42;40.97;;;10.90;;
17987;SDS011;9119;50.932;5.342;2023-06-22T02:22:07;43.80;;;9.87;;
17987;SDS011;9119;50.932;5.342;2023-06-22T02:24:33;34.80;;;10.27;;
17987;SDS011;9119;50.932;5.342;2023-06-22T02:26:59;37.03;;;11.20;;
17987;SDS011;9119;50.932;5.342;2023-06-22T02:29:26;32.80;;;9.93;;
17987;SDS011;9119;50.932;5.342;2023-06-22T02:31:52;29.03;;;10.13;;
17987;SDS011;9119;50.932;5.342;2023-06-22T02:34:18;30.40;;;11.10;;
17987;SDS011;9119;50.932;5.342;2023-06-22T02:36:48;31.47;;;10.77;;
17987;SDS011;9119;50.932;5.342;2023-06-22T02:39:20;27.33;;;10.03;;
17987;SDS011;9119;50.932;5.342;2023-06-22T02:41:56;29.70;;;10.13;;
17987;SDS011;9119;50.932;5.342;2023-06-22T02:44:25;29.13;;;10.57;;
17987;SDS011;9119;50.932;5.342;2023-06-22T02:46:50;27.63;;;11.73;;
17987;SDS011;9119;50.932;5.342;2023-06-22T02:49:16;26.90;;;11.43;;
17987;SDS011;9119;50.932;5.342;2023-06-22T02:51:44;27.50;;;11.70;;
17987;SDS011;9119;50.932;5.342;2023-06-22T02:54:10;30.30;;;12.37;;
17987;SDS011;9119;50.932;5.342;2023-06-22T02:56:36;26.57;;;12.27;;
17987;SDS011;9119;50.932;5.342;2023-06-22T02:59:02;31.33;;;11.63;;
17987;SDS011;9119;50.932;5.342;2023-06-22T03:01:28;26.50;;;12.37;;
17987;SDS011;9119;50.932;5.342;2023-06-22T03:03:55;31.67;;;12.43;;
17987;SDS011;9119;50.932;5.342;2023-06-22T03:06:21;28.00;;;13.23;;
17987;SDS011;9119;50.932;5.342;2023-06-22T03:08:48;30.00;;;12.67;;
17987;SDS011;9119;50.932;5.342;2023-06-22T03:11:16;29.73;;;13.40;;
17987;SDS011;9119;50.932;5.342;2023-06-22T03:13:42;33.73;;;12.87;;
17987;SDS011;9119;50.932;5.342;2023-06-22T03:16:08;22.63;;;13.17;;
17987;SDS011;9119;50.932;5.342;2023-06-22T03:18:34;30.50;;;13.50;;
17987;SDS011;9119;50.932;5.342;2023-06-22T03:20:59;28.93;;;13.53;;
17987;SDS011;9119;50.932;5.342;2023-06-22T03:23:27;25.97;;;14.17;;
17987;SDS011;9119;50.932;5.342;2023-06-22T03:25:52;28.97;;;14.73;;
17987;SDS011;9119;50.932;5.342;2023-06-22T03:28:20;26.73;;;14.40;;
17987;SDS011;9119;50.932;5.342;2023-06-22T03:30:46;24.73;;;14.70;;
17987;SDS011;9119;50.932;5.342;2023-06-22T03:33:12;28.23;;;14.23;;
17987;SDS011;9119;50.932;5.342;2023-06-22T03:35:38;26.40;;;14.60;;
17987;SDS011;9119;50.932;5.342;2023-06-22T03:38:03;28.60;;;14.23;;
17987;SDS011;9119;50.932;5.342;2023-06-22T03:40:29;27.93;;;14.70;;
17987;SDS011;9119;50.932;5.342;2023-06-22T03:42:55;25.40;;;14.90;;
17987;SDS011;9119;50.932;5.342;2023-06-22T03:45:21;27.73;;;15.10;;
17987;SDS011;9119;50.932;5.342;2023-06-22T03:47:46;31.90;;;15.17;;
17987;SDS011;9119;50.932;5.342;2023-06-22T03:50:12;27.40;;;16.10;;
17987;SDS011;9119;50.932;5.342;2023-06-22T03:52:39;29.63;;;15.30;;
17987;SDS011;9119;50.932;5.342;2023-06-22T03:55:05;26.50;;;15.97;;
17987;SDS011;9119;50.932;5.342;2023-06-22T03:57:32;25.30;;;15.43;;
17987;SDS011;9119;50.932;5.342;2023-06-22T03:59:57;25.97;;;15.10;;
17987;SDS011;9119;50.932;5.342;2023-06-22T04:02:23;27.03;;;15.70;;
17987;SDS011;9119;50.932;5.342;2023-06-22T04:04:49;29.57;;;16.53;;
17987;SDS011;9119;50.932;5.342;2023-06-22T04:07:15;27.37;;;15.87;;
17987;SDS011;9119;50.932;5.342;2023-06-22T04:09:42;30.70;;;15.43;;
17987;SDS011;9119;50.932;5.342;2023-06-22T04:12:08;31.67;;;15.63;;
17987;SDS011;9119;50.932;5.342;2023-06-22T04:14:34;27.40;;;14.00;;
17987;SDS011;9119;50.932;5.342;2023-06-22T04:17:00;28.40;;;13.00;;
17987;SDS011;9119;50.932;5.342;2023-06-22T04:19:26;27.13;;;14.33;;
17987;SDS011;9119;50.932;5.342;2023-06-22T04:21:51;23.47;;;13.60;;
17987;SDS011;9119;50.932;5.342;2023-06-22T04:24:17;21.50;;;13.27;;
17987;SDS011;9119;50.932;5.342;2023-06-22T04:26:43;29.23;;;15.97;;
17987;SDS011;9119;50.932;5.342;2023-06-22T04:29:10;30.33;;;16.23;;
17987;SDS011;9119;50.932;5.342;2023-06-22T04:31:36;38.17;;;15.83;;
17987;SDS011;9119;50.932;5.342;2023-06-22T04:34:03;28.13;;;15.63;;
17987;SDS011;9119;50.932;5.342;2023-06-22T04:36:39;34.43;;;17.80;;
17987;SDS011;9119;50.932;5.342;2023-06-22T04:39:07;31.73;;;17.90;;
17987;SDS011;9119;50.932;5.342;2023-06-22T04:41:34;28.00;;;17.80;;
17987;SDS011;9119;50.932;5.342;2023-06-22T04:46:37;36.27;;;19.63;;
17987;SDS011;9119;50.932;5.342;2023-06-22T04:49:06;29.47;;;18.17;;
17987;SDS011;9119;50.932;5.342;2023-06-22T04:51:39;35.20;;;20.13;;
17987;SDS011;9119;50.932;5.342;2023-06-22T04:54:06;37.03;;;20.03;;
17987;SDS011;9119;50.932;5.342;2023-06-22T04:56:33;33.50;;;19.60;;
17987;SDS011;9119;50.932;5.342;2023-06-22T04:58:59;35.10;;;19.50;;
17987;SDS011;9119;50.932;5.342;2023-06-22T05:01:24;39.60;;;20.50;;
17987;SDS011;9119;50.932;5.342;2023-06-22T05:03:50;34.30;;;19.80;;
17987;SDS011;9119;50.932;5.342;2023-06-22T05:06:21;31.83;;;18.30;;
17987;SDS011;9119;50.932;5.342;2023-06-22T05:08:49;29.60;;;18.50;;
17987;SDS011;9119;50.932;5.342;2023-06-22T05:11:22;31.33;;;18.60;;
17987;SDS011;9119;50.932;5.342;2023-06-22T05:13:54;33.53;;;20.07;;
17987;SDS011;9119;50.932;5.342;2023-06-22T05:16:22;36.07;;;18.77;;
17987;SDS011;9119;50.932;5.342;2023-06-22T05:18:52;32.37;;;18.50;;
17987;SDS011;9119;50.932;5.342;2023-06-22T05:21:26;35.87;;;18.87;;
17987;SDS011;9119;50.932;5.342;2023-06-22T05:23:55;31.87;;;18.53;;
17987;SDS011;9119;50.932;5.342;2023-06-22T05:26:25;35.23;;;20.00;;
17987;SDS011;9119;50.932;5.342;2023-06-22T05:28:51;35.17;;;21.10;;
17987;SDS011;9119;50.932;5.342;2023-06-22T05:31:17;32.57;;;19.87;;
17987;SDS011;9119;50.932;5.342;2023-06-22T05:33:46;36.70;;;20.73;;
17987;SDS011;9119;50.932;5.342;2023-06-22T05:36:13;33.27;;;20.23;;
17987;SDS011;9119;50.932;5.342;2023-06-22T05:38:40;28.50;;;20.33;;
17987;SDS011;9119;50.932;5.342;2023-06-22T05:41:06;37.60;;;21.03;;
17987;SDS011;9119;50.932;5.342;2023-06-22T05:43:32;36.33;;;22.00;;
17987;SDS011;9119;50.932;5.342;2023-06-22T05:46:00;37.67;;;22.07;;
17987;SDS011;9119;50.932;5.342;2023-06-22T05:48:26;44.27;;;23.47;;
17987;SDS011;9119;50.932;5.342;2023-06-22T05:50:53;35.10;;;23.50;;
17987;SDS011;9119;50.932;5.342;2023-06-22T05:53:19;40.87;;;22.40;;
17987;SDS011;9119;50.932;5.342;2023-06-22T05:55:45;41.77;;;23.53;;
17987;SDS011;9119;50.932;5.342;2023-06-22T05:58:11;36.87;;;22.63;;
17987;SDS011;9119;50.932;5.342;2023-06-22T06:00:38;40.07;;;23.07;;
17987;SDS011;9119;50.932;5.342;2023-06-22T06:03:04;37.70;;;22.70;;
17987;SDS011;9119;50.932;5.342;2023-06-22T06:05:34;35.47;;;23.17;;
17987;SDS011;9119;50.932;5.342;2023-06-22T06:08:00;37.43;;;22.47;;
17987;SDS011;9119;50.932;5.342;2023-06-22T06:10:26;34.60;;;22.17;;
17987;SDS011;9119;50.932;5.342;2023-06-22T06:12:54;39.33;;;22.27;;
17987;SDS011;9119;50.932;5.342;2023-06-22T06:15:20;36.57;;;22.50;;
17987;SDS011;9119;50.932;5.342;2023-06-22T06:17:50;37.87;;;22.63;;
17987;SDS011;9119;50.932;5.342;2023-06-22T06:20:20;40.03;;;23.37;;
17987;SDS011;9119;50.932;5.342;2023-06-22T06:22:48;42.07;;;22.23;;
17987;SDS011;9119;50.932;5.342;2023-06-22T06:25:14;36.20;;;22.70;;
17987;SDS011;9119;50.932;5.342;2023-06-22T06:27:45;41.47;;;23.87;;
17987;SDS011;9119;50.932;5.342;2023-06-22T06:30:12;39.60;;;22.80;;
17987;SDS011;9119;50.932;5.342;2023-06-22T06:32:38;38.73;;;23.87;;
17987;SDS011;9119;50.932;5.342;2023-06-22T06:35:08;42.40;;;23.37;;
17987;SDS011;9119;50.932;5.342;2023-06-22T06:37:38;34.53;;;22.27;;
17987;SDS011;9119;50.932;5.342;2023-06-22T06:40:05;36.53;;;23.00;;
17987;SDS011;9119;50.932;5.342;2023-06-22T06:42:38;40.60;;;22.97;;
17987;SDS011;9119;50.932;5.342;2023-06-22T06:45:12;39.30;;;22.03;;
17987;SDS011;9119;50.932;5.342;2023-06-22T06:47:48;39.87;;;22.40;;
17987;SDS011;9119;50.932;5.342;2023-06-22T06:50:15;38.70;;;23.03;;
17987;SDS011;9119;50.932;5.342;2023-06-22T06:52:41;40.37;;;24.47;;
17987;SDS011;9119;50.932;5.342;2023-06-22T06:55:07;62.50;;;25.03;;
17987;SDS011;9119;50.932;5.342;2023-06-22T06:57:37;37.80;;;23.53;;
17987;SDS011;9119;50.932;5.342;2023-06-22T07:00:07;39.33;;;23.00;;
17987;SDS011;9119;50.932;5.342;2023-06-22T07:02:37;37.93;;;23.70;;
17987;SDS011;9119;50.932;5.342;2023-06-22T07:05:13;46.43;;;26.13;;
17987;SDS011;9119;50.932;5.342;2023-06-22T07:07:39;42.43;;;23.90;;
17987;SDS011;9119;50.932;5.342;2023-06-22T07:10:05;37.50;;;23.33;;
17987;SDS011;9119;50.932;5.342;2023-06-22T07:12:31;38.57;;;23.87;;
17987;SDS011;9119;50.932;5.342;2023-06-22T07:15:03;37.27;;;22.87;;
17987;SDS011;9119;50.932;5.342;2023-06-22T07:17:32;37.07;;;22.13;;
17987;SDS011;9119;50.932;5.342;2023-06-22T07:19:58;32.77;;;21.07;;
17987;SDS011;9119;50.932;5.342;2023-06-22T07:22:24;36.23;;;21.20;;
17987;SDS011;9119;50.932;5.342;2023-06-22T07:24:50;37.10;;;21.67;;
17987;SDS011;9119;50.932;5.342;2023-06-22T07:27:16;36.23;;;20.70;;
17987;SDS011;9119;50.932;5.342;2023-06-22T07:29:44;33.93;;;21.50;;
17987;SDS011;9119;50.932;5.342;2023-06-22T07:32:10;35.47;;;21.77;;
17987;SDS011;9119;50.932;5.342;2023-06-22T07:34:36;35.83;;;21.73;;
17987;SDS011;9119;50.932;5.342;2023-06-22T07:37:02;40.03;;;21.10;;
17987;SDS011;9119;50.932;5.342;2023-06-22T07:39:29;31.77;;;21.00;;
17987;SDS011;9119;50.932;5.342;2023-06-22T07:41:55;36.70;;;22.27;;
17987;SDS011;9119;50.932;5.342;2023-06-22T07:44:20;37.53;;;21.97;;
17987;SDS011;9119;50.932;5.342;2023-06-22T07:46:46;50.40;;;21.33;;
17987;SDS011;9119;50.932;5.342;2023-06-22T07:49:12;39.93;;;22.03;;
17987;SDS011;9119;50.932;5.342;2023-06-22T07:51:38;43.20;;;21.87;;
17987;SDS011;9119;50.932;5.342;2023-06-22T07:54:03;43.70;;;22.27;;
17987;SDS011;9119;50.932;5.342;2023-06-22T07:56:29;41.20;;;22.73;;
17987;SDS011;9119;50.932;5.342;2023-06-22T07:58:55;43.37;;;26.60;;
17987;SDS011;9119;50.932;5.342;2023-06-22T08:01:23;36.73;;;22.03;;
17987;SDS011;9119;50.932;5.342;2023-06-22T08:03:51;37.73;;;21.73;;
17987;SDS011;9119;50.932;5.342;2023-06-22T08:06:17;35.20;;;20.77;;
17987;SDS011;9119;50.932;5.342;2023-06-22T08:08:43;34.50;;;19.57;;
17987;SDS011;9119;50.932;5.342;2023-06-22T08:11:09;37.03;;;20.60;;
17987;SDS011;9119;50.932;5.342;2023-06-22T08:13:35;35.27;;;21.57;;
17987;SDS011;9119;50.932;5.342;2023-06-22T08:16:00;30.77;;;19.67;;
17987;SDS011;9119;50.932;5.342;2023-06-22T08:18:26;38.30;;;20.43;;
17987;SDS011;9119;50.932;5.342;2023-06-22T08:20:52;40.20;;;20.73;;
17987;SDS011;9119;50.932;5.342;2023-06-22T08:23:17;33.33;;;21.30;;
17987;SDS011;9119;50.932;5.342;2023-06-22T08:25:43;36.80;;;21.03;;
17987;SDS011;9119;50.932;5.342;2023-06-22T08:28:09;32.90;;;20.20;;
17987;SDS011;9119;50.932;5.342;2023-06-22T08:30:35;32.50;;;20.80;;
17987;SDS011;9119;50.932;5.342;2023-06-22T08:33:00;34.87;;;21.30;;
17987;SDS011;9119;50.932;5.342;2023-06-22T08:35:26;27.17;;;19.40;;
17987;SDS011;9119;50.932;5.342;2023-06-22T08:37:52;33.90;;;20.63;;
17987;SDS011;9119;50.932;5.342;2023-06-22T08:40:20;33.10;;;21.37;;
17987;SDS011;9119;50.932;5.342;2023-06-22T08:42:46;33.37;;;20.83;;
17987;SDS011;9119;50.932;5.342;2023-06-22T08:45:13;32.97;;;21.37;;
17987;SDS011;9119;50.932;5.342;2023-06-22T08:47:39;32.37;;;20.20;;
17987;SDS011;9119;50.932;5.342;2023-06-22T08:50:09;32.93;;;20.47;;
17987;SDS011;9119;50.932;5.342;2023-06-22T08:52:35;30.43;;;20.40;;
17987;SDS011;9119;50.932;5.342;2023-06-22T08:55:02;31.93;;;20.73;;
17987;SDS011;9119;50.932;5.342;2023-06-22T08:57:28;29.37;;;18.90;;
17987;SDS011;9119;50.932;5.342;2023-06-22T08:59:55;39.40;;;20.47;;
17987;SDS011;9119;50.932;5.342;2023-06-22T09:02:23;36.27;;;20.77;;
17987;SDS011;9119;50.932;5.342;2023-06-22T09:04:49;32.17;;;21.13;;
17987;SDS011;9119;50.932;5.342;2023-06-22T09:07:20;42.53;;;25.70;;
17987;SDS011;9119;50.932;5.342;2023-06-22T09:09:48;31.23;;;21.53;;
17987;SDS011;9119;50.932;5.342;2023-06-22T09:12:14;31.10;;;21.50;;
17987;SDS011;9119;50.932;5.342;2023-06-22T09:14:40;32.70;;;21.10;;
17987;SDS011;9119;50.932;5.342;2023-06-22T09:17:05;34.67;;;21.67;;
17987;SDS011;9119;50.932;5.342;2023-06-22T09:19:31;36.80;;;21.80;;
17987;SDS011;9119;50.932;5.342;2023-06-22T09:21:57;33.80;;;22.93;;
17987;SDS011;9119;50.932;5.342;2023-06-22T09:24:22;37.13;;;23.13;;
17987;SDS011;9119;50.932;5.342;2023-06-22T09:26:48;36.50;;;22.67;;
17987;SDS011;9119;50.932;5.342;2023-06-22T09:29:14;37.33;;;24.20;;
17987;SDS011;9119;50.932;5.342;2023-06-22T09:31:39;34.90;;;23.00;;
17987;SDS011;9119;50.932;5.342;2023-06-22T09:34:05;34.93;;;23.50;;
17987;SDS011;9119;50.932;5.342;2023-06-22T09:36:31;35.47;;;24.60;;
17987;SDS011;9119;50.932;5.342;2023-06-22T09:38:57;41.63;;;23.17;;
17987;SDS011;9119;50.932;5.342;2023-06-22T09:41:23;36.73;;;24.33;;
17987;SDS011;9119;50.932;5.342;2023-06-22T09:43:50;43.63;;;24.47;;
17987;SDS011;9119;50.932;5.342;2023-06-22T09:46:16;41.60;;;24.77;;
17987;SDS011;9119;50.932;5.342;2023-06-22T09:48:42;44.70;;;25.73;;
17987;SDS011;9119;50.932;5.342;2023-06-22T09:51:07;45.40;;;26.53;;
17987;SDS011;9119;50.932;5.342;2023-06-22T09:53:33;42.00;;;26.37;;
17987;SDS011;9119;50.932;5.342;2023-06-22T09:56:03;44.87;;;27.40;;
17987;SDS011;9119;50.932;5.342;2023-06-22T09:58:28;42.87;;;28.33;;
17987;SDS011;9119;50.932;5.342;2023-06-22T10:00:57;42.43;;;28.10;;
17987;SDS011;9119;50.932;5.342;2023-06-22T10:03:23;48.80;;;28.90;;
17987;SDS011;9119;50.932;5.342;2023-06-22T10:05:49;44.53;;;29.20;;
17987;SDS011;9119;50.932;5.342;2023-06-22T10:08:14;45.50;;;29.37;;
17987;SDS011;9119;50.932;5.342;2023-06-22T10:10:40;46.53;;;30.67;;
17987;SDS011;9119;50.932;5.342;2023-06-22T10:13:09;48.33;;;30.33;;
17987;SDS011;9119;50.932;5.342;2023-06-22T10:15:35;51.67;;;30.87;;
17987;SDS011;9119;50.932;5.342;2023-06-22T10:18:01;48.60;;;30.93;;
17987;SDS011;9119;50.932;5.342;2023-06-22T10:20:27;48.07;;;32.03;;
17987;SDS011;9119;50.932;5.342;2023-06-22T10:22:53;59.07;;;34.10;;
17987;SDS011;9119;50.932;5.342;2023-06-22T10:25:19;51.87;;;34.53;;
17987;SDS011;9119;50.932;5.342;2023-06-22T10:27:45;59.97;;;36.10;;
17987;SDS011;9119;50.932;5.342;2023-06-22T10:30:11;53.83;;;35.57;;
17987;SDS011;9119;50.932;5.342;2023-06-22T10:32:38;60.77;;;36.63;;
17987;SDS011;9119;50.932;5.342;2023-06-22T10:35:04;59.43;;;37.30;;
17987;SDS011;9119;50.932;5.342;2023-06-22T10:37:31;66.77;;;38.40;;
17987;SDS011;9119;50.932;5.342;2023-06-22T10:39:56;65.77;;;41.13;;
17987;SDS011;9119;50.932;5.342;2023-06-22T10:42:22;65.70;;;41.90;;
17987;SDS011;9119;50.932;5.342;2023-06-22T10:44:48;67.07;;;42.63;;
17987;SDS011;9119;50.932;5.342;2023-06-22T10:47:14;69.07;;;40.90;;
17987;SDS011;9119;50.932;5.342;2023-06-22T10:49:40;63.40;;;40.70;;
17987;SDS011;9119;50.932;5.342;2023-06-22T10:52:06;72.63;;;41.47;;
17987;SDS011;9119;50.932;5.342;2023-06-22T10:54:33;70.00;;;41.60;;
17987;SDS011;9119;50.932;5.342;2023-06-22T10:57:00;73.77;;;43.40;;
17987;SDS011;9119;50.932;5.342;2023-06-22T10:59:27;70.30;;;42.23;;
17987;SDS011;9119;50.932;5.342;2023-06-22T11:01:54;61.57;;;40.83;;
17987;SDS011;9119;50.932;5.342;2023-06-22T11:04:20;68.93;;;42.37;;
17987;SDS011;9119;50.932;5.342;2023-06-22T11:06:47;73.97;;;43.80;;
17987;SDS011;9119;50.932;5.342;2023-06-22T11:09:14;78.60;;;45.00;;
17987;SDS011;9119;50.932;5.342;2023-06-22T11:11:45;72.77;;;43.83;;
17987;SDS011;9119;50.932;5.342;2023-06-22T11:14:11;71.17;;;43.23;;
17987;SDS011;9119;50.932;5.342;2023-06-22T11:16:37;71.93;;;43.87;;
17987;SDS011;9119;50.932;5.342;2023-06-22T11:19:04;71.30;;;46.20;;
17987;SDS011;9119;50.932;5.342;2023-06-22T11:21:30;71.50;;;43.33;;
17987;SDS011;9119;50.932;5.342;2023-06-22T11:23:56;69.97;;;44.20;;
17987;SDS011;9119;50.932;5.342;2023-06-22T11:26:22;65.50;;;43.47;;
17987;SDS011;9119;50.932;5.342;2023-06-22T11:28:48;63.60;;;42.17;;
17987;SDS011;9119;50.932;5.342;2023-06-22T11:31:14;66.57;;;41.90;;
17987;SDS011;9119;50.932;5.342;2023-06-22T11:33:39;62.93;;;40.60;;
17987;SDS011;9119;50.932;5.342;2023-06-22T11:36:05;61.90;;;39.57;;
17987;SDS011;9119;50.932;5.342;2023-06-22T11:38:31;62.20;;;39.30;;
17987;SDS011;9119;50.932;5.342;2023-06-22T11:41:00;63.80;;;42.50;;
17987;SDS011;9119;50.932;5.342;2023-06-22T11:43:25;62.90;;;42.60;;
17987;SDS011;9119;50.932;5.342;2023-06-22T11:45:52;64.87;;;41.57;;
17987;SDS011;9119;50.932;5.342;2023-06-22T11:48:17;62.70;;;41.07;;
17987;SDS011;9119;50.932;5.342;2023-06-22T11:50:43;62.63;;;41.20;;
17987;SDS011;9119;50.932;5.342;2023-06-22T11:53:08;66.67;;;41.00;;
17987;SDS011;9119;50.932;5.342;2023-06-22T11:55:34;62.93;;;41.53;;
17987;SDS011;9119;50.932;5.342;2023-06-22T11:58:00;60.97;;;39.10;;
17987;SDS011;9119;50.932;5.342;2023-06-22T12:00:28;66.53;;;42.40;;
17987;SDS011;9119;50.932;5.342;2023-06-22T12:02:54;59.27;;;38.93;;
17987;SDS011;9119;50.932;5.342;2023-06-22T12:05:21;67.13;;;42.40;;
17987;SDS011;9119;50.932;5.342;2023-06-22T12:07:47;64.37;;;42.80;;
17987;SDS011;9119;50.932;5.342;2023-06-22T12:10:13;66.07;;;42.23;;
17987;SDS011;9119;50.932;5.342;2023-06-22T12:12:39;69.70;;;40.80;;
17987;SDS011;9119;50.932;5.342;2023-06-22T12:15:05;66.97;;;43.00;;
17987;SDS011;9119;50.932;5.342;2023-06-22T12:17:32;72.10;;;43.47;;
17987;SDS011;9119;50.932;5.342;2023-06-22T12:19:58;68.87;;;43.23;;
17987;SDS011;9119;50.932;5.342;2023-06-22T12:22:24;69.07;;;43.97;;
17987;SDS011;9119;50.932;5.342;2023-06-22T12:24:50;69.13;;;46.20;;
17987;SDS011;9119;50.932;5.342;2023-06-22T12:27:16;73.70;;;45.40;;
17987;SDS011;9119;50.932;5.342;2023-06-22T12:29:43;70.03;;;45.93;;
17987;SDS011;9119;50.932;5.342;2023-06-22T12:32:12;71.47;;;46.40;;
17987;SDS011;9119;50.932;5.342;2023-06-22T12:34:39;79.83;;;46.43;;
17987;SDS011;9119;50.932;5.342;2023-06-22T12:37:05;73.60;;;48.07;;
17987;SDS011;9119;50.932;5.342;2023-06-22T12:39:31;72.20;;;46.27;;
17987;SDS011;9119;50.932;5.342;2023-06-22T12:41:57;75.47;;;49.43;;
17987;SDS011;9119;50.932;5.342;2023-06-22T12:44:23;77.80;;;48.70;;
17987;SDS011;9119;50.932;5.342;2023-06-22T12:46:48;77.77;;;48.83;;
17987;SDS011;9119;50.932;5.342;2023-06-22T12:49:14;77.80;;;50.73;;
17987;SDS011;9119;50.932;5.342;2023-06-22T12:51:41;75.27;;;48.40;;
17987;SDS011;9119;50.932;5.342;2023-06-22T12:54:07;79.57;;;50.17;;
17987;SDS011;9119;50.932;5.342;2023-06-22T12:56:33;73.33;;;48.37;;
17987;SDS011;9119;50.932;5.342;2023-06-22T12:58:59;72.83;;;50.57;;
17987;SDS011;9119;50.932;5.342;2023-06-22T13:01:27;78.23;;;49.37;;
17987;SDS011;9119;50.932;5.342;2023-06-22T13:03:53;84.17;;;49.30;;
17987;SDS011;9119;50.932;5.342;2023-06-22T13:06:19;78.97;;;51.23;;
17987;SDS011;9119;50.932;5.342;2023-06-22T13:08:45;71.57;;;44.60;;
17987;SDS011;9119;50.932;5.342;2023-06-22T13:11:10;69.70;;;45.07;;
17987;SDS011;9119;50.932;5.342;2023-06-22T13:13:36;71.20;;;45.03;;
17987;SDS011;9119;50.932;5.342;2023-06-22T13:16:02;67.77;;;45.93;;
17987;SDS011;9119;50.932;5.342;2023-06-22T13:18:27;71.00;;;43.17;;
17987;SDS011;9119;50.932;5.342;2023-06-22T13:20:53;67.80;;;43.67;;
17987;SDS011;9119;50.932;5.342;2023-06-22T13:23:20;64.73;;;41.97;;
17987;SDS011;9119;50.932;5.342;2023-06-22T13:25:46;61.43;;;41.87;;
17987;SDS011;9119;50.932;5.342;2023-06-22T13:28:12;62.47;;;38.20;;
17987;SDS011;9119;50.932;5.342;2023-06-22T13:30:41;66.77;;;39.63;;
17987;SDS011;9119;50.932;5.342;2023-06-22T13:33:10;59.80;;;38.80;;
17987;SDS011;9119;50.932;5.342;2023-06-22T13:35:36;65.13;;;39.90;;
17987;SDS011;9119;50.932;5.342;2023-06-22T13:38:02;52.33;;;34.03;;
17987;SDS011;9119;50.932;5.342;2023-06-22T13:40:28;61.83;;;37.90;;
17987;SDS011;9119;50.932;5.342;2023-06-22T13:42:55;59.43;;;36.00;;
17987;SDS011;9119;50.932;5.342;2023-06-22T13:45:20;56.73;;;35.90;;
17987;SDS011;9119;50.932;5.342;2023-06-22T13:47:46;53.67;;;34.20;;
17987;SDS011;9119;50.932;5.342;2023-06-22T13:50:12;55.23;;;34.17;;
17987;SDS011;9119;50.932;5.342;2023-06-22T13:52:38;48.37;;;33.17;;
17987;SDS011;9119;50.932;5.342;2023-06-22T13:55:04;48.33;;;30.40;;
17987;SDS011;9119;50.932;5.342;2023-06-22T13:57:32;61.50;;;37.40;;
17987;SDS011;9119;50.932;5.342;2023-06-22T13:59:58;54.93;;;36.97;;
17987;SDS011;9119;50.932;5.342;2023-06-22T14:02:25;57.63;;;38.07;;
17987;SDS011;9119;50.932;5.342;2023-06-22T14:04:51;63.10;;;40.60;;
17987;SDS011;9119;50.932;5.342;2023-06-22T14:07:17;69.13;;;41.30;;
17987;SDS011;9119;50.932;5.342;2023-06-22T14:09:44;71.47;;;46.23;;
17987;SDS011;9119;50.932;5.342;2023-06-22T14:12:10;72.83;;;44.57;;
17987;SDS011;9119;50.932;5.342;2023-06-22T14:14:36;68.83;;;43.70;;
17987;SDS011;9119;50.932;5.342;2023-06-22T14:17:02;74.77;;;44.40;;
17987;SDS011;9119;50.932;5.342;2023-06-22T14:19:29;72.53;;;46.07;;
17987;SDS011;9119;50.932;5.342;2023-06-22T14:21:54;70.37;;;44.77;;
17987;SDS011;9119;50.932;5.342;2023-06-22T14:24:21;60.20;;;42.27;;
17987;SDS011;9119;50.932;5.342;2023-06-22T14:26:47;71.40;;;46.90;;
17987;SDS011;9119;50.932;5.342;2023-06-22T14:29:13;70.97;;;44.33;;
17987;SDS011;9119;50.932;5.342;2023-06-22T14:31:39;75.60;;;46.07;;
17987;SDS011;9119;50.932;5.342;2023-06-22T14:34:04;77.50;;;46.77;;
17987;SDS011;9119;50.932;5.342;2023-06-22T14:36:31;75.40;;;46.30;;
17987;SDS011;9119;50.932;5.342;2023-06-22T14:38:57;74.73;;;49.60;;
17987;SDS011;9119;50.932;5.342;2023-06-22T14:41:22;72.57;;;46.93;;